Time;durP1;ratioP1;P1;durP2;ratioP2;P2;SDS_P1;SDS_P2;PMS_P1;PMS_P2;Temp;Humidity;BMP_temperature;BMP_pressure;BME280_temperature;BME280_humidity;BME280_pressure;Samples;Min_cycle;Max_cycle;Signal;HPM_P1;HPM_P2
2021/09/30 00:01:35;;;;;;;;;4.75;2.00;;;;;13.78;49.54;102391.25;5002611;28;45274;-49
2021/09/30 00:04:01;;;;;;;;;2.75;2.00;;;;;13.76;49.40;102385.97;5003408;28;45278;-49
2021/09/30 00:06:27;;;;;;;;;2.25;2.00;;;;;13.75;49.32;102389.50;5002352;28;46235;-49
2021/09/30 00:08:52;;;;;;;;;4.75;3.00;;;;;13.73;49.62;102391.25;5003546;28;45215;-50
2021/09/30 00:11:29;;;;;;;;;4.00;2.00;;;;;13.71;49.68;102386.84;5002490;28;45390;-49
2021/09/30 00:14:04;;;;;;;;;4.50;2.75;;;;;13.68;49.70;102390.38;4998330;28;45229;-49
2021/09/30 00:32:34;;;;;;;;;2.00;2.00;;;;;13.64;49.52;102400.06;5002155;28;45464;-50
2021/09/30 00:40:32;;;;;;;;;3.25;2.75;;;;;13.44;49.58;102386.00;5001926;28;45259;-49
2021/09/30 00:45:58;;;;;;;;;3.00;2.00;;;;;13.42;49.68;102383.34;5001988;28;45275;-48
2021/09/30 00:51:11;;;;;;;;;3.00;2.00;;;;;13.40;49.99;102389.53;5001725;28;45407;-49
2021/09/30 02:59:20;;;;;;;;;4.25;3.00;;;;;12.24;51.34;102344.34;4999972;28;45480;-47
2021/09/30 03:01:47;;;;;;;;;3.00;2.25;;;;;12.23;51.36;102335.56;5000217;28;45292;-46
2021/09/30 03:04:14;;;;;;;;;5.50;4.00;;;;;12.18;51.53;102324.13;4999907;28;45244;-49
2021/09/30 03:06:42;;;;;;;;;6.25;3.50;;;;;12.18;51.61;102324.13;5000084;28;45392;-50
2021/09/30 03:09:09;;;;;;;;;3.75;3.00;;;;;12.16;51.53;102325.88;4999696;28;45414;-50
2021/09/30 03:11:38;;;;;;;;;4.00;4.00;;;;;12.15;51.73;102334.63;4999763;28;45233;-45
2021/09/30 03:14:06;;;;;;;;;2.75;2.50;;;;;12.13;51.64;102332.00;4985503;28;45304;-47
2021/09/30 03:16:46;;;;;;;;;4.50;3.00;;;;;12.11;51.32;102331.13;5000024;28;45344;-50
2021/09/30 03:19:20;;;;;;;;;5.50;4.00;;;;;12.09;51.51;102327.59;4986438;28;47069;-51
2021/09/30 03:24:49;;;;;;;;;4.50;2.50;;;;;12.03;51.87;102325.81;4949182;28;45506;-49
2021/09/30 03:27:15;;;;;;;;;2.75;2.75;;;;;12.00;51.86;102338.09;4998119;28;45485;-47
2021/09/30 03:29:41;;;;;;;;;6.00;5.00;;;;;11.98;51.80;102345.13;4999809;28;46404;-48
2021/09/30 03:32:08;;;;;;;;;2.00;2.00;;;;;11.95;51.80;102345.94;5001918;28;45511;-45
2021/09/30 03:34:34;;;;;;;;;6.00;3.25;;;;;11.91;51.68;102346.81;5003410;28;45400;-49
2021/09/30 03:37:02;;;;;;;;;5.50;3.00;;;;;11.90;51.96;102345.03;5003143;28;45371;-49
2021/09/30 03:39:27;;;;;;;;;3.50;2.25;;;;;11.86;51.98;102344.13;5001540;28;46156;-50
2021/09/30 03:41:53;;;;;;;;;4.50;4.00;;;;;11.85;51.96;102344.13;5002954;28;45322;-48
2021/09/30 03:44:19;;;;;;;;;3.25;2.00;;;;;11.83;51.88;102345.88;5003361;28;45186;-51
2021/09/30 03:46:48;;;;;;;;;2.75;2.00;;;;;11.81;51.85;102344.97;5003178;28;45554;-48
2021/09/30 03:49:22;;;;;;;;;2.00;2.00;;;;;11.78;51.97;102342.31;5003093;28;45960;-48
2021/09/30 03:59:28;;;;;;;;;3.00;2.50;;;;;11.76;51.85;102344.97;5001448;28;45909;-48
2021/09/30 04:02:01;;;;;;;;;3.00;3.00;;;;;11.74;51.91;102354.59;5003048;28;45239;-50
2021/09/30 04:04:32;;;;;;;;;3.75;2.25;;;;;11.75;52.13;102352.81;5001412;28;46584;-50
2021/09/30 04:07:02;;;;;;;;;3.25;3.25;;;;;11.74;52.09;102357.22;5002864;28;45328;-50
2021/09/30 04:09:28;;;;;;;;;6.00;4.75;;;;;11.73;52.14;102359.84;5002402;28;45353;-49
2021/09/30 04:11:55;;;;;;;;;5.25;4.00;;;;;11.73;52.11;102362.50;5002419;28;45482;-50
2021/09/30 04:14:21;;;;;;;;;4.75;3.50;;;;;11.68;52.13;102358.09;5002849;28;45235;-47
2021/09/30 04:16:47;;;;;;;;;3.25;3.25;;;;;11.66;52.32;102372.06;5002673;28;45290;-46
2021/09/30 04:19:17;;;;;;;;;2.25;2.25;;;;;11.63;52.17;102370.31;5001133;28;46463;-49
2021/09/30 04:21:45;;;;;;;;;5.25;4.25;;;;;11.62;52.41;102367.66;5002746;28;45432;-49
2021/09/30 04:24:10;;;;;;;;;4.50;2.00;;;;;11.59;52.27;102368.53;5002624;28;45254;-49
2021/09/30 04:26:36;;;;;;;;;6.00;5.75;;;;;11.58;52.38;102363.25;5002626;28;45474;-46
2021/09/30 04:29:01;;;;;;;;;8.00;7.00;;;;;11.55;52.31;102362.34;5002424;28;46090;-49
2021/09/30 04:31:26;;;;;;;;;7.50;6.25;;;;;11.54;52.51;102360.59;5002684;28;45341;-48
2021/09/30 04:33:52;;;;;;;;;3.75;3.00;;;;;11.54;52.13;102359.72;5002662;28;45351;-48
2021/09/30 04:36:18;;;;;;;;;3.00;2.75;;;;;11.52;52.44;102359.72;5002286;28;45324;-49
2021/09/30 04:38:45;;;;;;;;;3.00;2.00;;;;;11.50;52.54;102365.84;5001808;28;45392;-46
2021/09/30 04:41:12;;;;;;;;;3.00;3.00;;;;;11.49;52.38;102364.06;5002408;28;45456;-46
2021/09/30 04:43:37;;;;;;;;;3.25;3.00;;;;;11.49;52.43;102366.69;5001200;28;45410;-45
2021/09/30 04:46:02;;;;;;;;;5.75;4.00;;;;;11.47;52.36;102366.69;5002140;28;45286;-46
2021/09/30 04:48:28;;;;;;;;;2.00;1.25;;;;;11.46;52.25;102358.75;5002227;28;46268;-48
2021/09/30 04:50:53;;;;;;;;;2.75;2.75;;;;;11.46;52.58;102369.28;5002280;28;45302;-46
2021/09/30 04:53:18;;;;;;;;;2.00;2.00;;;;;11.44;52.67;102360.53;5002473;28;45479;-46
2021/09/30 04:55:44;;;;;;;;;4.00;3.00;;;;;11.33;52.73;102342.91;5001860;28;45326;-46
2021/09/30 04:58:09;;;;;;;;;3.75;3.00;;;;;11.40;52.61;102348.22;5002044;28;45282;-46
2021/09/30 05:00:34;;;;;;;;;7.25;5.25;;;;;11.38;52.69;102351.72;5002120;28;45142;-45
2021/09/30 05:03:00;;;;;;;;;6.75;4.50;;;;;11.38;52.58;102348.16;5001668;28;45274;-49
2021/09/30 05:05:25;;;;;;;;;2.50;2.50;;;;;11.36;52.57;102347.31;5001125;28;45321;-47
2021/09/30 05:07:50;;;;;;;;;5.25;2.00;;;;;11.38;52.67;102345.53;5001445;28;45289;-47
2021/09/30 05:10:19;;;;;;;;;3.75;3.75;;;;;11.37;52.60;102347.31;5001544;28;45360;-46
2021/09/30 05:12:45;;;;;;;;;4.00;4.00;;;;;11.37;52.65;102347.31;5001587;28;45443;-49
2021/09/30 05:15:10;;;;;;;;;4.00;4.00;;;;;11.36;52.57;102347.31;5000521;28;45387;-48
2021/09/30 05:17:36;;;;;;;;;3.50;3.50;;;;;11.37;52.61;102352.56;5001034;28;45309;-47
2021/09/30 05:20:01;;;;;;;;;4.25;4.25;;;;;11.34;52.63;102346.41;5000915;28;45377;-48
2021/09/30 05:22:26;;;;;;;;;3.00;3.00;;;;;11.38;52.60;102361.34;5001826;28;45575;-47
2021/09/30 05:24:52;;;;;;;;;3.25;3.25;;;;;11.36;52.62;102355.19;5000687;28;45491;-46
2021/09/30 05:27:17;;;;;;;;;5.50;3.50;;;;;11.36;52.59;102355.19;5000172;28;48197;-45
2021/09/30 05:29:42;;;;;;;;;2.50;2.00;;;;;11.34;52.64;102357.78;5001690;28;45251;-48
2021/09/30 05:32:08;;;;;;;;;4.25;4.25;;;;;11.31;52.54;102355.16;4996729;28;45289;-47
2021/09/30 05:34:34;;;;;;;;;6.50;4.75;;;;;11.32;52.50;102361.28;4993039;28;45461;-46
2021/09/30 05:36:59;;;;;;;;;2.75;2.75;;;;;11.30;52.78;102361.28;5014598;28;45555;-49
2021/09/30 05:39:24;;;;;;;;;4.00;2.75;;;;;11.29;52.68;102356.00;5001087;28;45262;-48
2021/09/30 05:41:53;;;;;;;;;4.00;3.00;;;;;11.28;52.86;102354.22;5001331;28;45159;-47
2021/09/30 05:44:22;;;;;;;;;2.00;2.00;;;;;11.27;53.14;102360.38;5001367;28;46404;-47
2021/09/30 05:46:53;;;;;;;;;3.50;3.00;;;;;11.26;53.27;102355.97;5001097;28;46557;-49
2021/09/30 05:49:18;;;;;;;;;3.00;3.00;;;;;11.24;53.02;102361.22;5001298;28;45403;-47
2021/09/30 05:51:44;;;;;;;;;5.75;3.50;;;;;11.24;53.10;102357.72;4988218;28;45399;-47
2021/09/30 05:54:09;;;;;;;;;4.00;3.50;;;;;11.22;53.05;102360.34;5000656;28;45305;-48
2021/09/30 05:56:35;;;;;;;;;5.50;4.25;;;;;11.20;52.86;102362.06;4999796;28;46054;-47
2021/09/30 05:59:00;;;;;;;;;6.00;3.00;;;;;11.17;52.97;102373.44;5001106;28;45324;-49
2021/09/30 06:10:06;;;;;;;;;7.00;4.00;;;;;11.06;53.15;102378.59;5001418;28;45468;-47
2021/09/30 06:14:42;;;;;;;;;10.50;5.00;;;;;11.00;53.38;102370.63;5002396;28;45586;-49
2021/09/30 06:17:08;;;;;;;;;5.50;3.50;;;;;10.99;53.28;102368.91;5000476;28;45387;-47
2021/09/30 06:19:34;;;;;;;;;7.50;4.50;;;;;10.99;53.17;102368.91;5008445;28;45251;-50
2021/09/30 06:22:04;;;;;;;;;8.50;4.75;;;;;10.98;53.17;102369.75;5005787;28;45459;-48
2021/09/30 06:24:29;;;;;;;;;9.25;7.00;;;;;10.98;53.27;102367.13;5000892;28;45374;-49
2021/09/30 06:26:55;;;;;;;;;12.50;8.00;;;;;11.00;53.48;102369.78;5002494;28;45365;-49
2021/09/30 06:29:20;;;;;;;;;6.50;5.00;;;;;10.99;53.50;102363.63;5004433;28;45469;-48
2021/09/30 06:31:45;;;;;;;;;7.50;7.00;;;;;11.02;53.30;102371.53;5014138;28;45336;-49
2021/09/30 06:34:11;;;;;;;;;12.50;7.50;;;;;11.06;53.34;102375.09;5018460;28;45425;-44
2021/09/30 06:36:36;;;;;;;;;14.75;7.00;;;;;11.05;53.69;102376.81;5016236;28;46472;-49
2021/09/30 06:39:03;;;;;;;;;9.00;6.00;;;;;11.05;53.67;102371.56;5018446;28;45324;-44
2021/09/30 06:41:28;;;;;;;;;10.50;8.75;;;;;11.06;53.76;102369.84;4995913;28;45404;-45
2021/09/30 06:43:54;;;;;;;;;26.75;22.25;;;;;11.04;53.69;102364.56;5018298;28;45259;-47
2021/09/30 06:46:19;;;;;;;;;13.50;7.25;;;;;11.04;53.58;102361.94;5016032;28;46260;-43
2021/09/30 06:48:45;;;;;;;;;9.50;8.00;;;;;11.07;53.63;102361.09;5018250;28;45369;-47
2021/09/30 06:51:11;;;;;;;;;8.25;8.25;;;;;11.09;53.75;102364.59;5013178;28;45162;-46
2021/09/30 06:53:36;;;;;;;;;13.50;8.75;;;;;11.11;53.81;102375.16;5009546;28;45625;-48
2021/09/30 06:56:08;;;;;;;;;16.25;10.75;;;;;11.12;53.79;102369.00;5019797;28;46319;-48
2021/09/30 06:58:40;;;;;;;;;9.75;7.75;;;;;11.13;53.47;102362.88;5019778;28;45249;-49
2021/09/30 07:01:08;;;;;;;;;11.00;8.00;;;;;11.14;53.77;102357.63;5006788;28;45271;-49
2021/09/30 07:03:34;;;;;;;;;10.00;8.00;;;;;11.19;53.60;102360.28;5000168;28;45396;-51
2021/09/30 07:05:59;;;;;;;;;15.25;10.50;;;;;11.19;53.77;102365.56;4998867;28;45461;-47
2021/09/30 07:08:25;;;;;;;;;13.75;8.75;;;;;11.18;53.69;102363.78;4998418;28;45449;-47
2021/09/30 07:10:50;;;;;;;;;11.75;7.00;;;;;11.20;53.79;102369.97;5010235;28;45578;-51
2021/09/30 07:13:16;;;;;;;;;10.00;8.00;;;;;11.17;53.77;102352.41;5019885;28;45238;-47
2021/09/30 07:15:41;;;;;;;;;8.75;5.50;;;;;11.17;53.85;102351.50;5017652;28;45997;-52
2021/09/30 07:18:17;;;;;;;;;10.25;7.50;;;;;11.18;53.66;102345.38;5006755;28;45269;-49
2021/09/30 07:20:43;;;;;;;;;9.50;9.00;;;;;11.19;53.67;102345.41;5000003;28;45260;-51
2021/09/30 07:23:08;;;;;;;;;8.50;8.25;;;;;11.21;53.74;102358.56;4999842;28;45405;-51
2021/09/30 07:25:34;;;;;;;;;13.00;9.25;;;;;11.21;53.69;102355.94;4999636;28;46055;-49
2021/09/30 07:27:59;;;;;;;;;6.25;5.50;;;;;11.22;53.74;102361.22;4999804;28;45289;-49
2021/09/30 07:30:25;;;;;;;;;9.75;8.25;;;;;11.23;53.82;102356.81;4999971;28;45325;-51
2021/09/30 07:32:50;;;;;;;;;10.50;7.75;;;;;11.25;53.60;102360.34;4999931;28;45497;-50
2021/09/30 07:35:16;;;;;;;;;9.00;7.00;;;;;11.26;53.85;102369.13;4999421;28;46138;-50
2021/09/30 07:37:41;;;;;;;;;10.00;8.75;;;;;11.27;53.85;102368.25;4999880;28;45268;-49
2021/09/30 07:40:07;;;;;;;;;7.50;6.75;;;;;11.30;53.90;102368.31;4999630;28;45979;-51
2021/09/30 07:42:33;;;;;;;;;7.75;7.75;;;;;11.32;53.85;102364.81;4999676;28;45467;-49
2021/09/30 07:44:58;;;;;;;;;11.00;9.50;;;;;11.32;53.75;102372.72;4999505;28;46113;-48
2021/09/30 07:47:24;;;;;;;;;10.25;9.00;;;;;11.36;53.93;102358.69;4999717;28;45251;-49
2021/09/30 07:49:51;;;;;;;;;8.75;7.25;;;;;11.41;53.76;102366.63;4999661;28;45471;-50
2021/09/30 07:52:17;;;;;;;;;12.50;10.75;;;;;11.45;53.83;102367.56;4999718;28;45286;-50
2021/09/30 07:54:42;;;;;;;;;10.00;7.50;;;;;11.48;53.71;102373.72;5014291;28;48304;-50
2021/09/30 07:57:08;;;;;;;;;8.50;8.50;;;;;11.51;53.94;102370.22;4999499;28;45290;-49
2021/09/30 07:59:33;;;;;;;;;9.25;7.00;;;;;11.56;53.87;102371.16;4999428;28;45575;-47
2021/09/30 08:01:59;;;;;;;;;10.50;8.00;;;;;11.60;53.87;102367.66;4999603;28;45317;-50
2021/09/30 08:04:24;;;;;;;;;9.75;8.50;;;;;11.61;54.03;102368.53;4999103;28;45306;-50
2021/09/30 08:06:49;;;;;;;;;7.25;7.25;;;;;11.66;53.99;102361.53;4999423;28;45312;-49
2021/09/30 08:09:15;;;;;;;;;4.00;2.00;;;;;11.68;54.04;102357.19;4998218;28;45459;-47
2021/09/30 08:11:41;;;;;;;;;13.25;10.50;;;;;11.73;54.13;102360.72;4998058;28;45476;-49
2021/09/30 08:14:06;;;;;;;;;10.00;9.00;;;;;11.78;54.10;102366.91;4999052;28;45377;-50
2021/09/30 08:16:32;;;;;;;;;10.00;7.00;;;;;11.84;54.06;102373.97;4998038;28;45250;-49
2021/09/30 08:18:58;;;;;;;;;10.50;9.00;;;;;11.87;54.16;102364.34;5002689;28;45259;-47
2021/09/30 08:21:24;;;;;;;;;9.25;7.75;;;;;11.95;54.10;102363.50;5001344;28;45372;-47
2021/09/30 08:23:49;;;;;;;;;11.25;8.00;;;;;12.01;54.07;102366.19;5002252;28;45241;-49
2021/09/30 08:26:19;;;;;;;;;9.00;8.00;;;;;12.07;54.16;102362.72;5001185;28;45167;-51
2021/09/30 08:28:48;;;;;;;;;9.00;9.00;;;;;12.16;54.11;102373.31;5002567;28;45402;-49
2021/09/30 08:31:13;;;;;;;;;9.75;7.50;;;;;12.23;54.23;102372.47;5002340;28;45177;-50
2021/09/30 08:33:40;;;;;;;;;10.50;7.75;;;;;12.30;54.25;102374.28;5002374;28;46112;-48
2021/09/30 08:36:09;;;;;;;;;9.75;7.50;;;;;12.38;53.98;102378.66;5002215;28;45496;-51
2021/09/30 08:38:35;;;;;;;;;8.25;6.75;;;;;12.43;54.40;102374.31;5002210;28;45321;-47
2021/09/30 08:41:00;;;;;;;;;6.75;6.00;;;;;12.52;54.35;102375.22;5000967;28;45363;-49
2021/09/30 08:43:25;;;;;;;;;9.50;6.50;;;;;12.59;54.40;102378.78;5002163;28;46105;-48
2021/09/30 08:45:51;;;;;;;;;6.00;5.25;;;;;12.68;54.25;102373.53;5002410;28;45320;-51
2021/09/30 08:48:16;;;;;;;;;5.50;5.00;;;;;12.80;54.30;102382.34;5017688;28;45173;-49
2021/09/30 08:50:43;;;;;;;;;5.75;5.75;;;;;12.87;54.30;102370.03;5002255;28;45408;-50
2021/09/30 08:53:11;;;;;;;;;3.00;3.00;;;;;12.97;54.20;102369.22;5002223;28;46072;-49
2021/09/30 08:55:37;;;;;;;;;5.50;3.25;;;;;13.08;53.99;102361.28;5001782;28;45320;-47
2021/09/30 08:58:03;;;;;;;;;8.00;7.00;;;;;13.19;54.10;102353.41;5001965;28;45353;-47
2021/09/30 09:00:31;;;;;;;;;6.25;6.25;;;;;13.30;53.96;102356.91;5001874;28;45483;-49
2021/09/30 09:02:57;;;;;;;;;12.00;6.50;;;;;13.42;54.22;102356.06;5001936;28;46167;-51
2021/09/30 09:05:25;;;;;;;;;4.50;4.00;;;;;13.55;53.93;102354.31;5001518;28;45330;-51
2021/09/30 09:07:58;;;;;;;;;2.75;2.75;;;;;13.67;54.23;102348.97;5002062;28;45259;-51
2021/09/30 09:10:35;;;;;;;;;3.00;2.00;;;;;13.80;54.06;102350.72;4989272;28;45166;-50
2021/09/30 09:13:13;;;;;;;;;6.50;3.00;;;;;13.94;54.05;102341.91;5001571;28;46028;-48
2021/09/30 09:15:57;;;;;;;;;4.00;4.00;;;;;14.05;53.44;102341.84;5001822;28;45460;-47
2021/09/30 09:18:35;;;;;;;;;5.25;3.00;;;;;14.16;53.77;102329.47;5002151;28;45515;-52
2021/09/30 09:21:06;;;;;;;;;5.50;4.25;;;;;14.29;53.51;102339.13;5001579;28;45358;-49
2021/09/30 09:23:38;;;;;;;;;7.00;4.25;;;;;14.42;53.35;102331.13;5001418;28;45441;-49
2021/09/30 09:26:14;;;;;;;;;3.50;1.75;;;;;14.55;53.23;102329.31;5001570;28;45277;-47
2021/09/30 09:29:13;;;;;;;;;5.00;3.50;;;;;14.70;53.07;102331.00;5000981;28;45238;-50
2021/09/30 09:31:43;;;;;;;;;2.25;2.00;;;;;14.84;53.44;102325.63;5001776;28;45366;-51
2021/09/30 09:34:28;;;;;;;;;0.00;0.00;;;;;14.93;52.99;102326.44;5000071;28;46317;-47
2021/09/30 09:37:14;;;;;;;;;4.00;2.75;;;;;15.06;53.25;102323.72;5001622;28;45234;-46
2021/09/30 09:39:40;;;;;;;;;4.00;1.00;;;;;15.21;53.06;102328.00;4989863;28;45227;-51
2021/09/30 09:42:14;;;;;;;;;2.00;2.00;;;;;15.28;52.35;102325.28;5001238;28;45143;-50
2021/09/30 09:45:11;;;;;;;;;3.75;1.25;;;;;15.46;52.02;102331.31;5016600;28;46614;-50
2021/09/30 09:47:39;;;;;;;;;1.75;1.00;;;;;15.55;51.84;102320.63;5000642;28;45431;-51
2021/09/30 09:50:15;;;;;;;;;1.00;0.00;;;;;15.64;51.71;102324.94;5016699;28;45478;-49
2021/09/30 09:52:55;;;;;;;;;1.75;0.00;;;;;15.74;51.75;102323.09;5001396;28;45289;-49
2021/09/30 09:55:26;;;;;;;;;1.00;0.00;;;;;15.84;51.33;102330.06;5000924;28;46460;-50
2021/09/30 09:58:03;;;;;;;;;1.00;0.00;;;;;15.92;51.02;102322.94;5001041;28;45271;-48
2021/09/30 10:00:30;;;;;;;;;1.75;0.75;;;;;15.98;50.95;102314.00;5001162;28;45241;-51
2021/09/30 10:02:56;;;;;;;;;3.00;0.00;;;;;16.08;51.13;102328.03;5001279;28;45179;-49
2021/09/30 10:05:21;;;;;;;;;1.00;0.50;;;;;16.15;51.09;102323.53;5012577;28;46941;-49
2021/09/30 10:07:47;;;;;;;;;3.00;1.50;;;;;16.21;50.73;102311.09;5005543;28;45381;-48
2021/09/30 10:10:15;;;;;;;;;2.25;2.25;;;;;16.32;50.57;102320.69;5020696;28;45436;-46
2021/09/30 10:12:42;;;;;;;;;1.00;1.00;;;;;16.40;50.42;102318.78;5020746;28;45395;-50
2021/09/30 10:15:08;;;;;;;;;0.50;0.25;;;;;16.51;50.04;102311.56;5020486;28;46754;-49
2021/09/30 10:17:33;;;;;;;;;0.00;0.00;;;;;16.56;50.05;102299.13;5019766;28;45245;-49
2021/09/30 10:20:03;;;;;;;;;3.00;0.75;;;;;16.60;49.92;102299.91;5000767;28;45428;-50
2021/09/30 10:22:29;;;;;;;;;0.50;0.50;;;;;16.68;50.31;102307.81;5000953;28;45357;-50
2021/09/30 10:24:56;;;;;;;;;0.75;0.75;;;;;16.77;50.30;102301.47;5000532;28;45425;-47
2021/09/30 10:27:22;;;;;;;;;1.50;0.00;;;;;16.84;50.16;102297.81;4999518;28;45689;-50
2021/09/30 10:29:48;;;;;;;;;0.00;0.00;;;;;16.94;49.43;102319.81;5000989;28;45239;-50
2021/09/30 10:32:20;;;;;;;;;0.50;0.50;;;;;16.96;49.39;102297.66;5000846;28;45250;-49
2021/09/30 10:34:48;;;;;;;;;0.00;0.00;;;;;17.03;49.33;102301.97;5000350;28;46326;-49
2021/09/30 10:37:31;;;;;;;;;1.50;1.50;;;;;17.09;49.11;102311.59;5000489;28;45246;-47
2021/09/30 10:40:19;;;;;;;;;1.00;1.00;;;;;17.17;49.17;102296.41;5000076;28;45314;-48
2021/09/30 10:42:53;;;;;;;;;1.00;1.00;;;;;17.21;48.93;102298.09;4999981;28;45518;-48
2021/09/30 10:45:21;;;;;;;;;1.75;1.00;;;;;17.24;48.89;102302.50;5000211;28;47150;-46
2021/09/30 10:47:48;;;;;;;;;1.00;1.00;;;;;17.30;48.61;102289.09;5000694;28;45333;-47
2021/09/30 10:50:14;;;;;;;;;2.00;0.75;;;;;17.37;48.53;102308.44;5000482;28;45322;-50
2021/09/30 10:52:54;;;;;;;;;4.00;1.00;;;;;17.39;48.56;102301.34;5000380;28;45274;-46
2021/09/30 10:55:23;;;;;;;;;1.00;1.00;;;;;17.44;48.80;102307.44;4999876;28;47109;-46
2021/09/30 10:57:57;;;;;;;;;0.00;0.00;;;;;17.52;48.56;102294.91;5000106;28;45461;-49
2021/09/30 11:00:23;;;;;;;;;1.00;1.00;;;;;17.59;48.31;102290.34;5000361;28;45328;-49
2021/09/30 11:03:05;;;;;;;;;1.75;0.00;;;;;17.72;48.77;102277.69;5000320;28;45490;-50
2021/09/30 11:05:40;;;;;;;;;1.00;1.00;;;;;17.86;48.81;102264.09;5000265;28;46107;-48
2021/09/30 11:08:22;;;;;;;;;2.00;2.00;;;;;18.05;48.64;102263.75;5000113;28;45240;-49
2021/09/30 11:11:04;;;;;;;;;0.50;0.50;;;;;18.25;48.43;102250.91;4999048;28;45313;-49
2021/09/30 11:13:30;;;;;;;;;1.50;1.00;;;;;18.44;48.23;102253.13;4999880;28;45305;-49
2021/09/30 11:16:05;;;;;;;;;2.00;0.50;;;;;18.63;48.53;102253.59;4999948;28;46177;-47
2021/09/30 11:18:53;;;;;;;;;1.75;1.00;;;;;18.84;47.96;102247.72;4999908;28;45386;-51
2021/09/30 11:21:46;;;;;;;;;1.00;0.75;;;;;19.06;47.91;102236.56;4999922;28;45307;-50
2021/09/30 11:24:25;;;;;;;;;0.00;0.00;;;;;19.26;47.73;102237.84;4999363;28;45326;-50
2021/09/30 11:26:54;;;;;;;;;2.00;2.00;;;;;19.43;47.98;102230.25;4999873;28;46158;-47
2021/09/30 11:29:19;;;;;;;;;1.00;0.00;;;;;19.63;47.08;102226.13;4999778;28;45275;-50
2021/09/30 11:31:46;;;;;;;;;1.00;1.00;;;;;19.80;46.53;102230.97;5000157;28;45322;-45
2021/09/30 11:34:20;;;;;;;;;1.00;1.00;;;;;19.97;46.33;102214.50;4999594;28;45191;-48
2021/09/30 11:36:46;;;;;;;;;1.50;0.00;;;;;20.12;46.79;102208.69;4999427;28;45281;-47
2021/09/30 11:39:12;;;;;;;;;1.00;0.00;;;;;20.26;46.10;102210.03;4999335;28;45317;-47
2021/09/30 11:41:43;;;;;;;;;2.75;1.00;;;;;20.42;46.07;102213.09;4999905;28;45436;-46
2021/09/30 11:44:14;;;;;;;;;1.00;1.00;;;;;20.58;46.63;102205.47;4999091;28;45423;-49
2021/09/30 11:46:39;;;;;;;;;2.00;1.00;;;;;20.74;46.28;102209.41;4999433;28;46234;-49
2021/09/30 11:49:11;;;;;;;;;1.00;0.00;;;;;20.92;46.05;102213.22;4999411;28;45293;-49
2021/09/30 11:51:39;;;;;;;;;1.25;0.00;;;;;21.05;45.22;102218.16;4999964;28;45337;-47
2021/09/30 11:54:06;;;;;;;;;1.50;1.50;;;;;21.18;45.84;102208.78;5001173;28;45327;-50
2021/09/30 11:56:46;;;;;;;;;0.00;0.00;;;;;21.33;45.74;102199.31;5002985;28;45647;-50
2021/09/30 11:59:13;;;;;;;;;0.00;0.00;;;;;21.49;45.43;102194.28;5000578;28;45262;-46
2021/09/30 12:01:45;;;;;;;;;3.75;0.00;;;;;21.66;45.34;102195.47;5021406;28;45270;-50
2021/09/30 12:04:12;;;;;;;;;1.00;0.00;;;;;21.81;44.91;102196.69;5021671;28;45270;-51
2021/09/30 12:06:43;;;;;;;;;0.00;0.00;;;;;21.94;44.26;102192.63;5002624;28;47190;-47
2021/09/30 12:09:10;;;;;;;;;1.00;1.00;;;;;22.03;44.37;102176.19;5002714;28;45336;-49
2021/09/30 12:11:37;;;;;;;;;2.50;1.00;;;;;22.17;44.53;102182.78;5002811;28;45315;-51
2021/09/30 12:14:04;;;;;;;;;0.00;0.00;;;;;22.35;43.67;102182.06;5002647;28;45464;-49
2021/09/30 12:16:30;;;;;;;;;1.25;0.00;;;;;22.46;43.35;102194.16;5002555;28;45314;-50
2021/09/30 12:19:04;;;;;;;;;0.00;0.00;;;;;22.53;43.73;102185.78;5002574;28;45266;-49
2021/09/30 12:21:38;;;;;;;;;1.00;1.00;;;;;22.62;43.54;102181.00;5002756;28;45274;-49
2021/09/30 12:24:08;;;;;;;;;1.00;0.00;;;;;22.70;42.96;102162.78;5002234;28;45178;-50
2021/09/30 12:26:35;;;;;;;;;0.00;0.00;;;;;22.77;43.49;102158.91;5002609;28;45821;-51
2021/09/30 12:29:01;;;;;;;;;0.25;0.25;;;;;22.87;43.31;102145.97;5002379;28;45367;-47
2021/09/30 12:31:29;;;;;;;;;0.00;0.00;;;;;22.96;43.22;102145.56;5002977;28;45326;-51
2021/09/30 12:33:54;;;;;;;;;2.75;0.00;;;;;23.08;43.13;102133.44;5002567;28;45540;-47
2021/09/30 12:36:20;;;;;;;;;2.25;1.50;;;;;23.23;43.02;102133.69;5002151;28;46075;-50
2021/09/30 12:39:03;;;;;;;;;1.00;1.00;;;;;23.40;42.46;102133.78;5002065;28;45230;-50
2021/09/30 12:41:30;;;;;;;;;0.00;0.00;;;;;23.53;42.83;102145.69;5002769;28;45294;-48
2021/09/30 12:44:12;;;;;;;;;0.00;0.00;;;;;23.70;42.62;102133.28;5002114;28;45587;-52
2021/09/30 12:46:51;;;;;;;;;1.50;1.50;;;;;23.85;42.18;102134.38;5002319;28;46068;-49
2021/09/30 12:49:18;;;;;;;;;1.50;1.50;;;;;23.99;42.22;102137.28;5002128;28;45275;-53
2021/09/30 12:51:44;;;;;;;;;1.00;1.00;;;;;24.09;41.92;102132.31;5002107;28;45462;-50
2021/09/30 12:54:10;;;;;;;;;1.75;0.25;;;;;24.18;41.85;102125.63;5001989;28;45416;-50
2021/09/30 12:56:36;;;;;;;;;0.25;0.25;;;;;24.24;41.42;102114.56;5000471;28;46060;-51
2021/09/30 12:59:14;;;;;;;;;0.75;0.00;;;;;24.31;41.45;102113.31;5001992;28;45368;-52
2021/09/30 13:01:41;;;;;;;;;0.50;0.25;;;;;24.34;41.14;102107.78;5001973;28;45418;-50
2021/09/30 13:04:12;;;;;;;;;2.00;1.00;;;;;24.42;40.83;102107.38;5000735;28;45403;-50
2021/09/30 13:06:56;;;;;;;;;1.00;0.00;;;;;24.43;40.68;102100.22;5004406;28;46200;-48
2021/09/30 13:09:33;;;;;;;;;0.50;0.50;;;;;24.43;40.61;102106.44;5021630;28;45264;-52
2021/09/30 13:11:59;;;;;;;;;1.00;1.00;;;;;24.43;40.39;102100.22;5021755;28;45396;-48
2021/09/30 13:14:36;;;;;;;;;0.00;0.00;;;;;24.49;40.78;102086.47;5021509;28;45258;-50
2021/09/30 13:17:19;;;;;;;;;2.50;1.00;;;;;24.58;40.74;102085.97;5021807;28;46242;-50
2021/09/30 13:19:46;;;;;;;;;1.00;1.00;;;;;24.69;40.28;102082.78;5002308;28;45163;-50
2021/09/30 13:22:14;;;;;;;;;0.75;0.75;;;;;24.82;40.76;102072.22;5000538;28;45472;-50
2021/09/30 13:24:41;;;;;;;;;1.00;0.00;;;;;24.91;39.81;102079.78;4999884;28;45515;-48
2021/09/30 13:27:10;;;;;;;;;1.50;1.00;;;;;25.04;39.83;102066.53;5001486;28;46133;-51
2021/09/30 13:29:36;;;;;;;;;0.00;0.00;;;;;25.18;40.15;102062.22;5001431;28;45317;-51
2021/09/30 13:32:02;;;;;;;;;0.00;0.00;;;;;25.30;39.95;102066.94;5001688;28;45266;-52
2021/09/30 13:34:27;;;;;;;;;0.00;0.00;;;;;25.40;39.52;102067.31;5001302;28;45378;-54
2021/09/30 13:36:52;;;;;;;;;3.25;1.00;;;;;25.48;40.16;102062.34;5001523;28;46201;-50
2021/09/30 13:39:18;;;;;;;;;0.00;0.00;;;;;25.60;39.14;102050.03;5001090;28;45313;-51
2021/09/30 13:41:44;;;;;;;;;2.00;1.00;;;;;25.69;39.29;102059.41;5001654;28;45500;-52
2021/09/30 13:44:10;;;;;;;;;2.00;0.00;;;;;25.82;39.15;102057.72;5001055;28;45271;-52
2021/09/30 13:46:35;;;;;;;;;0.00;0.00;;;;;25.95;39.75;102042.59;5001321;28;45385;-52
2021/09/30 13:49:02;;;;;;;;;1.00;0.00;;;;;26.10;40.21;102043.56;5001389;28;45281;-49
2021/09/30 13:51:29;;;;;;;;;0.00;0.00;;;;;26.28;40.16;102043.41;5001620;28;45246;-51
2021/09/30 13:53:54;;;;;;;;;0.00;0.00;;;;;26.38;39.36;102036.50;5000867;28;45466;-50
2021/09/30 13:56:20;;;;;;;;;0.75;0.00;;;;;26.55;39.42;102035.47;5001067;28;46318;-51
2021/09/30 13:58:45;;;;;;;;;0.00;0.00;;;;;26.66;39.49;102033.94;5000971;28;45326;-48
2021/09/30 14:01:11;;;;;;;;;3.00;0.00;;;;;26.77;39.22;102028.78;5001345;28;45794;-52
2021/09/30 14:03:36;;;;;;;;;1.00;0.00;;;;;26.81;38.81;102024.06;5001116;28;45611;-49
2021/09/30 14:06:02;;;;;;;;;0.25;0.25;;;;;26.87;38.29;102027.22;5000888;28;45527;-49
2021/09/30 14:08:28;;;;;;;;;0.00;0.00;;;;;26.94;38.77;102027.69;5000814;28;45426;-52
2021/09/30 14:10:56;;;;;;;;;1.25;0.00;;;;;27.02;38.78;102019.09;5001296;28;45464;-50
2021/09/30 14:13:21;;;;;;;;;0.75;0.00;;;;;27.09;39.14;102017.75;5000821;28;45313;-52
2021/09/30 14:15:47;;;;;;;;;0.25;0.00;;;;;27.19;38.20;102007.25;5000653;28;45244;-48
2021/09/30 14:18:12;;;;;;;;;0.75;0.75;;;;;27.20;38.05;102009.81;5000731;28;45246;-51
2021/09/30 14:20:38;;;;;;;;;0.00;0.00;;;;;27.17;37.95;102011.84;5001083;28;45550;-47
2021/09/30 14:23:04;;;;;;;;;0.25;0.25;;;;;27.15;38.01;102001.16;5000635;28;45163;-49
2021/09/30 14:25:30;;;;;;;;;28.00;26.75;;;;;27.13;38.04;101994.16;5000678;28;45246;-51